sensor_id;sensor_type;location;lat;lon;timestamp;P1;durP1;ratioP1;P2;durP2;ratioP2
57395;SDS011;43222;52.912;6.940;2022-11-20T00:02:24;33.50;;;21.00;;
57395;SDS011;43222;52.912;6.940;2022-11-20T00:04:50;30.92;;;20.20;;
57395;SDS011;43222;52.912;6.940;2022-11-20T00:07:16;26.92;;;17.98;;
57395;SDS011;43222;52.912;6.940;2022-11-20T00:09:42;28.50;;;18.65;;
57395;SDS011;43222;52.912;6.940;2022-11-20T00:12:08;32.72;;;20.30;;
57395;SDS011;43222;52.912;6.940;2022-11-20T00:14:34;31.40;;;20.52;;
57395;SDS011;43222;52.912;6.940;2022-11-20T00:17:00;31.17;;;20.45;;
57395;SDS011;43222;52.912;6.940;2022-11-20T00:19:26;36.47;;;24.15;;
57395;SDS011;43222;52.912;6.940;2022-11-20T00:21:52;31.17;;;20.45;;
57395;SDS011;43222;52.912;6.940;2022-11-20T00:24:20;29.83;;;19.60;;
57395;SDS011;43222;52.912;6.940;2022-11-20T00:26:46;34.75;;;20.70;;
57395;SDS011;43222;52.912;6.940;2022-11-20T00:29:12;32.03;;;20.00;;
57395;SDS011;43222;52.912;6.940;2022-11-20T00:31:38;28.45;;;18.38;;
57395;SDS011;43222;52.912;6.940;2022-11-20T00:34:04;28.10;;;19.33;;
57395;SDS011;43222;52.912;6.940;2022-11-20T00:36:32;30.63;;;18.58;;
57395;SDS011;43222;52.912;6.940;2022-11-20T00:38:58;29.20;;;19.17;;
57395;SDS011;43222;52.912;6.940;2022-11-20T00:41:25;29.55;;;18.35;;
57395;SDS011;43222;52.912;6.940;2022-11-20T00:43:52;29.20;;;19.20;;
57395;SDS011;43222;52.912;6.940;2022-11-20T00:46:19;28.85;;;18.17;;
57395;SDS011;43222;52.912;6.940;2022-11-20T00:48:45;28.55;;;18.08;;
57395;SDS011;43222;52.912;6.940;2022-11-20T00:51:16;29.67;;;19.13;;
57395;SDS011;43222;52.912;6.940;2022-11-20T00:53:42;27.90;;;17.97;;
57395;SDS011;43222;52.912;6.940;2022-11-20T00:56:12;27.83;;;18.20;;
57395;SDS011;43222;52.912;6.940;2022-11-20T00:58:39;28.77;;;18.85;;
57395;SDS011;43222;52.912;6.940;2022-11-20T01:01:07;26.67;;;17.52;;
57395;SDS011;43222;52.912;6.940;2022-11-20T01:03:37;27.08;;;17.63;;
57395;SDS011;43222;52.912;6.940;2022-11-20T01:06:05;26.05;;;17.10;;
57395;SDS011;43222;52.912;6.940;2022-11-20T01:08:32;26.95;;;17.92;;
57395;SDS011;43222;52.912;6.940;2022-11-20T01:10:59;28.38;;;18.67;;
57395;SDS011;43222;52.912;6.940;2022-11-20T01:13:25;26.17;;;17.88;;
57395;SDS011;43222;52.912;6.940;2022-11-20T01:16:11;28.60;;;18.33;;
57395;SDS011;43222;52.912;6.940;2022-11-20T01:18:38;27.90;;;18.20;;
57395;SDS011;43222;52.912;6.940;2022-11-20T01:21:05;27.08;;;18.83;;
57395;SDS011;43222;52.912;6.940;2022-11-20T01:23:36;26.60;;;18.60;;
57395;SDS011;43222;52.912;6.940;2022-11-20T01:26:06;28.67;;;18.85;;
57395;SDS011;43222;52.912;6.940;2022-11-20T01:28:32;30.27;;;18.27;;
57395;SDS011;43222;52.912;6.940;2022-11-20T01:30:59;28.80;;;18.23;;
57395;SDS011;43222;52.912;6.940;2022-11-20T01:33:25;26.80;;;18.17;;
57395;SDS011;43222;52.912;6.940;2022-11-20T01:35:51;25.52;;;17.65;;
57395;SDS011;43222;52.912;6.940;2022-11-20T01:38:18;28.88;;;18.98;;
57395;SDS011;43222;52.912;6.940;2022-11-20T01:40:45;27.40;;;17.20;;
57395;SDS011;43222;52.912;6.940;2022-11-20T01:43:17;27.45;;;17.60;;
57395;SDS011;43222;52.912;6.940;2022-11-20T01:48:29;25.88;;;16.38;;
57395;SDS011;43222;52.912;6.940;2022-11-20T01:50:57;24.52;;;16.52;;
57395;SDS011;43222;52.912;6.940;2022-11-20T01:53:25;26.00;;;17.02;;
57395;SDS011;43222;52.912;6.940;2022-11-20T01:55:53;26.80;;;17.45;;
57395;SDS011;43222;52.912;6.940;2022-11-20T01:58:22;25.60;;;16.35;;
57395;SDS011;43222;52.912;6.940;2022-11-20T02:00:49;25.25;;;16.80;;
57395;SDS011;43222;52.912;6.940;2022-11-20T02:03:16;22.88;;;16.92;;
57395;SDS011;43222;52.912;6.940;2022-11-20T02:05:51;23.17;;;15.15;;
57395;SDS011;43222;52.912;6.940;2022-11-20T02:08:17;22.70;;;15.50;;
57395;SDS011;43222;52.912;6.940;2022-11-20T02:10:44;23.85;;;16.80;;
57395;SDS011;43222;52.912;6.940;2022-11-20T02:13:10;23.75;;;16.08;;
57395;SDS011;43222;52.912;6.940;2022-11-20T02:15:54;21.63;;;15.18;;
57395;SDS011;43222;52.912;6.940;2022-11-20T02:18:21;26.23;;;16.17;;
57395;SDS011;43222;52.912;6.940;2022-11-20T02:20:48;24.15;;;15.95;;
57395;SDS011;43222;52.912;6.940;2022-11-20T02:23:23;23.77;;;15.68;;
57395;SDS011;43222;52.912;6.940;2022-11-20T02:25:52;26.05;;;15.20;;
57395;SDS011;43222;52.912;6.940;2022-11-20T02:28:19;21.67;;;15.20;;
57395;SDS011;43222;52.912;6.940;2022-11-20T02:30:46;26.77;;;16.38;;
57395;SDS011;43222;52.912;6.940;2022-11-20T02:33:12;23.10;;;15.73;;
57395;SDS011;43222;52.912;6.940;2022-11-20T02:35:45;22.33;;;15.50;;
57395;SDS011;43222;52.912;6.940;2022-11-20T02:38:12;21.65;;;15.25;;
57395;SDS011;43222;52.912;6.940;2022-11-20T02:40:38;22.35;;;15.25;;
57395;SDS011;43222;52.912;6.940;2022-11-20T02:43:04;22.58;;;15.02;;
57395;SDS011;43222;52.912;6.940;2022-11-20T02:45:33;23.92;;;16.40;;
57395;SDS011;43222;52.912;6.940;2022-11-20T02:47:59;24.48;;;15.65;;
57395;SDS011;43222;52.912;6.940;2022-11-20T02:50:25;22.85;;;15.60;;
57395;SDS011;43222;52.912;6.940;2022-11-20T02:52:52;23.27;;;15.43;;
57395;SDS011;43222;52.912;6.940;2022-11-20T02:55:18;23.48;;;15.60;;
57395;SDS011;43222;52.912;6.940;2022-11-20T02:57:44;22.90;;;15.27;;
57395;SDS011;43222;52.912;6.940;2022-11-20T03:00:10;21.45;;;14.98;;
57395;SDS011;43222;52.912;6.940;2022-11-20T03:02:36;22.63;;;15.50;;
57395;SDS011;43222;52.912;6.940;2022-11-20T03:05:02;23.02;;;14.43;;
57395;SDS011;43222;52.912;6.940;2022-11-20T03:07:28;22.90;;;15.80;;
57395;SDS011;43222;52.912;6.940;2022-11-20T03:09:54;23.15;;;15.23;;
57395;SDS011;43222;52.912;6.940;2022-11-20T03:12:20;21.58;;;15.25;;
57395;SDS011;43222;52.912;6.940;2022-11-20T03:14:46;21.60;;;14.98;;
57395;SDS011;43222;52.912;6.940;2022-11-20T03:17:12;20.30;;;14.50;;
57395;SDS011;43222;52.912;6.940;2022-11-20T03:19:38;21.33;;;14.57;;
57395;SDS011;43222;52.912;6.940;2022-11-20T03:22:04;23.33;;;14.15;;
57395;SDS011;43222;52.912;6.940;2022-11-20T03:24:30;21.80;;;14.65;;
57395;SDS011;43222;52.912;6.940;2022-11-20T03:26:56;22.73;;;14.93;;
57395;SDS011;43222;52.912;6.940;2022-11-20T03:29:23;20.85;;;14.43;;
57395;SDS011;43222;52.912;6.940;2022-11-20T03:31:49;21.38;;;14.90;;
57395;SDS011;43222;52.912;6.940;2022-11-20T03:34:15;23.33;;;15.18;;
57395;SDS011;43222;52.912;6.940;2022-11-20T03:36:41;20.33;;;14.45;;
57395;SDS011;43222;52.912;6.940;2022-11-20T03:39:08;20.85;;;14.48;;
57395;SDS011;43222;52.912;6.940;2022-11-20T03:41:39;21.67;;;14.93;;
57395;SDS011;43222;52.912;6.940;2022-11-20T03:44:06;23.42;;;15.73;;
57395;SDS011;43222;52.912;6.940;2022-11-20T03:46:32;20.75;;;14.15;;
57395;SDS011;43222;52.912;6.940;2022-11-20T03:48:58;22.00;;;15.15;;
57395;SDS011;43222;52.912;6.940;2022-11-20T03:51:25;22.20;;;14.52;;
57395;SDS011;43222;52.912;6.940;2022-11-20T03:53:53;22.30;;;15.25;;
57395;SDS011;43222;52.912;6.940;2022-11-20T03:56:20;21.23;;;14.40;;
57395;SDS011;43222;52.912;6.940;2022-11-20T03:58:47;20.67;;;14.82;;
57395;SDS011;43222;52.912;6.940;2022-11-20T04:01:18;22.35;;;15.35;;
57395;SDS011;43222;52.912;6.940;2022-11-20T04:03:44;22.35;;;15.32;;
57395;SDS011;43222;52.912;6.940;2022-11-20T04:06:21;21.83;;;13.90;;
57395;SDS011;43222;52.912;6.940;2022-11-20T04:08:47;22.08;;;15.10;;
57395;SDS011;43222;52.912;6.940;2022-11-20T04:11:17;21.75;;;14.25;;
57395;SDS011;43222;52.912;6.940;2022-11-20T04:13:47;19.50;;;14.03;;
57395;SDS011;43222;52.912;6.940;2022-11-20T04:16:14;21.98;;;14.50;;
57395;SDS011;43222;52.912;6.940;2022-11-20T04:18:40;19.80;;;13.45;;
57395;SDS011;43222;52.912;6.940;2022-11-20T04:21:07;22.50;;;13.63;;
57395;SDS011;43222;52.912;6.940;2022-11-20T04:23:33;20.10;;;14.75;;
57395;SDS011;43222;52.912;6.940;2022-11-20T04:26:06;22.48;;;14.25;;
57395;SDS011;43222;52.912;6.940;2022-11-20T04:28:33;22.40;;;13.95;;
57395;SDS011;43222;52.912;6.940;2022-11-20T04:31:03;19.55;;;14.15;;
57395;SDS011;43222;52.912;6.940;2022-11-20T04:33:29;21.35;;;14.55;;
57395;SDS011;43222;52.912;6.940;2022-11-20T04:35:59;20.42;;;14.23;;
57395;SDS011;43222;52.912;6.940;2022-11-20T04:38:25;20.00;;;14.02;;
57395;SDS011;43222;52.912;6.940;2022-11-20T04:40:55;19.60;;;13.95;;
57395;SDS011;43222;52.912;6.940;2022-11-20T04:43:21;20.92;;;13.85;;
57395;SDS011;43222;52.912;6.940;2022-11-20T04:45:50;20.63;;;13.80;;
57395;SDS011;43222;52.912;6.940;2022-11-20T04:48:16;20.88;;;13.60;;
57395;SDS011;43222;52.912;6.940;2022-11-20T04:50:42;20.60;;;13.43;;
57395;SDS011;43222;52.912;6.940;2022-11-20T04:53:08;20.77;;;13.85;;
57395;SDS011;43222;52.912;6.940;2022-11-20T04:55:34;22.25;;;13.80;;
57395;SDS011;43222;52.912;6.940;2022-11-20T04:58:00;21.02;;;13.75;;
57395;SDS011;43222;52.912;6.940;2022-11-20T05:00:26;20.50;;;13.52;;
57395;SDS011;43222;52.912;6.940;2022-11-20T05:02:52;21.15;;;14.10;;
57395;SDS011;43222;52.912;6.940;2022-11-20T05:05:18;19.00;;;13.85;;
57395;SDS011;43222;52.912;6.940;2022-11-20T05:07:44;19.70;;;13.80;;
57395;SDS011;43222;52.912;6.940;2022-11-20T05:10:10;21.05;;;14.20;;
57395;SDS011;43222;52.912;6.940;2022-11-20T05:12:36;19.83;;;13.68;;
57395;SDS011;43222;52.912;6.940;2022-11-20T05:15:02;24.63;;;15.68;;
57395;SDS011;43222;52.912;6.940;2022-11-20T05:17:28;33.88;;;21.05;;
57395;SDS011;43222;52.912;6.940;2022-11-20T05:19:54;33.58;;;20.95;;
57395;SDS011;43222;52.912;6.940;2022-11-20T05:22:20;23.88;;;15.80;;
57395;SDS011;43222;52.912;6.940;2022-11-20T05:24:46;20.40;;;14.52;;
57395;SDS011;43222;52.912;6.940;2022-11-20T05:27:12;21.75;;;14.55;;
57395;SDS011;43222;52.912;6.940;2022-11-20T05:29:38;21.10;;;14.18;;
57395;SDS011;43222;52.912;6.940;2022-11-20T05:32:04;19.48;;;13.35;;
57395;SDS011;43222;52.912;6.940;2022-11-20T05:34:32;20.73;;;13.57;;
57395;SDS011;43222;52.912;6.940;2022-11-20T05:36:58;21.02;;;14.00;;
57395;SDS011;43222;52.912;6.940;2022-11-20T05:39:24;21.27;;;14.02;;
57395;SDS011;43222;52.912;6.940;2022-11-20T05:41:50;19.08;;;14.07;;
57395;SDS011;43222;52.912;6.940;2022-11-20T05:44:36;21.77;;;13.93;;
57395;SDS011;43222;52.912;6.940;2022-11-20T05:47:02;19.88;;;14.43;;
57395;SDS011;43222;52.912;6.940;2022-11-20T05:49:28;19.80;;;13.77;;
57395;SDS011;43222;52.912;6.940;2022-11-20T05:51:54;19.65;;;13.63;;
57395;SDS011;43222;52.912;6.940;2022-11-20T05:54:20;20.20;;;14.10;;
57395;SDS011;43222;52.912;6.940;2022-11-20T05:56:46;18.83;;;13.57;;
57395;SDS011;43222;52.912;6.940;2022-11-20T05:59:12;20.92;;;14.52;;
57395;SDS011;43222;52.912;6.940;2022-11-20T06:01:38;20.17;;;14.65;;
57395;SDS011;43222;52.912;6.940;2022-11-20T06:04:04;20.48;;;14.20;;
57395;SDS011;43222;52.912;6.940;2022-11-20T06:06:30;20.52;;;14.15;;
57395;SDS011;43222;52.912;6.940;2022-11-20T06:08:56;18.65;;;13.15;;
57395;SDS011;43222;52.912;6.940;2022-11-20T06:11:24;21.15;;;14.38;;
57395;SDS011;43222;52.912;6.940;2022-11-20T06:13:50;21.17;;;14.52;;
57395;SDS011;43222;52.912;6.940;2022-11-20T06:16:17;21.60;;;14.25;;
57395;SDS011;43222;52.912;6.940;2022-11-20T06:18:44;20.63;;;13.80;;
57395;SDS011;43222;52.912;6.940;2022-11-20T06:21:12;20.85;;;13.93;;
57395;SDS011;43222;52.912;6.940;2022-11-20T06:23:38;20.63;;;13.82;;
57395;SDS011;43222;52.912;6.940;2022-11-20T06:26:08;20.00;;;13.93;;
57395;SDS011;43222;52.912;6.940;2022-11-20T06:28:35;20.70;;;14.43;;
57395;SDS011;43222;52.912;6.940;2022-11-20T06:31:01;19.42;;;13.82;;
57395;SDS011;43222;52.912;6.940;2022-11-20T06:33:27;19.55;;;13.65;;
57395;SDS011;43222;52.912;6.940;2022-11-20T06:36:00;20.92;;;14.63;;
57395;SDS011;43222;52.912;6.940;2022-11-20T06:38:27;22.05;;;15.00;;
57395;SDS011;43222;52.912;6.940;2022-11-20T06:40:53;21.50;;;15.10;;
57395;SDS011;43222;52.912;6.940;2022-11-20T06:43:19;23.73;;;15.23;;
57395;SDS011;43222;52.912;6.940;2022-11-20T06:45:45;18.92;;;13.27;;
57395;SDS011;43222;52.912;6.940;2022-11-20T06:48:11;20.15;;;12.90;;
57395;SDS011;43222;52.912;6.940;2022-11-20T06:50:37;19.02;;;13.93;;
57395;SDS011;43222;52.912;6.940;2022-11-20T06:53:04;18.75;;;13.68;;
57395;SDS011;43222;52.912;6.940;2022-11-20T06:55:30;18.60;;;13.10;;
57395;SDS011;43222;52.912;6.940;2022-11-20T06:57:57;20.60;;;13.43;;
57395;SDS011;43222;52.912;6.940;2022-11-20T07:00:23;21.48;;;14.30;;
57395;SDS011;43222;52.912;6.940;2022-11-20T07:02:49;21.70;;;15.25;;
57395;SDS011;43222;52.912;6.940;2022-11-20T07:05:15;23.98;;;15.65;;
57395;SDS011;43222;52.912;6.940;2022-11-20T07:07:41;18.35;;;13.00;;
57395;SDS011;43222;52.912;6.940;2022-11-20T07:10:07;20.83;;;14.10;;
57395;SDS011;43222;52.912;6.940;2022-11-20T07:12:34;24.42;;;16.85;;
57395;SDS011;43222;52.912;6.940;2022-11-20T07:15:00;22.52;;;15.38;;
57395;SDS011;43222;52.912;6.940;2022-11-20T07:17:26;22.15;;;15.27;;
57395;SDS011;43222;52.912;6.940;2022-11-20T07:19:53;23.63;;;16.02;;
57395;SDS011;43222;52.912;6.940;2022-11-20T07:22:19;20.05;;;13.70;;
57395;SDS011;43222;52.912;6.940;2022-11-20T07:24:46;19.58;;;12.93;;
57395;SDS011;43222;52.912;6.940;2022-11-20T07:27:13;16.83;;;12.20;;
57395;SDS011;43222;52.912;6.940;2022-11-20T07:29:39;19.05;;;12.45;;
57395;SDS011;43222;52.912;6.940;2022-11-20T07:32:05;18.45;;;13.10;;
57395;SDS011;43222;52.912;6.940;2022-11-20T07:34:31;17.73;;;12.40;;
57395;SDS011;43222;52.912;6.940;2022-11-20T07:36:57;19.17;;;13.18;;
57395;SDS011;43222;52.912;6.940;2022-11-20T07:39:23;18.38;;;13.68;;
57395;SDS011;43222;52.912;6.940;2022-11-20T07:41:49;19.60;;;13.25;;
57395;SDS011;43222;52.912;6.940;2022-11-20T07:44:15;17.33;;;12.52;;
57395;SDS011;43222;52.912;6.940;2022-11-20T07:46:41;17.45;;;12.40;;
57395;SDS011;43222;52.912;6.940;2022-11-20T07:49:07;17.15;;;12.13;;
57395;SDS011;43222;52.912;6.940;2022-11-20T07:51:33;18.75;;;12.85;;
57395;SDS011;43222;52.912;6.940;2022-11-20T07:53:59;17.13;;;12.10;;
57395;SDS011;43222;52.912;6.940;2022-11-20T07:56:25;18.52;;;14.60;;
57395;SDS011;43222;52.912;6.940;2022-11-20T07:58:51;28.17;;;22.73;;
57395;SDS011;43222;52.912;6.940;2022-11-20T08:01:17;21.23;;;16.15;;
57395;SDS011;43222;52.912;6.940;2022-11-20T08:03:43;17.15;;;12.95;;
57395;SDS011;43222;52.912;6.940;2022-11-20T08:06:09;19.70;;;12.68;;
57395;SDS011;43222;52.912;6.940;2022-11-20T08:08:35;19.13;;;13.20;;
57395;SDS011;43222;52.912;6.940;2022-11-20T08:11:01;19.70;;;13.32;;
57395;SDS011;43222;52.912;6.940;2022-11-20T08:14:00;19.10;;;13.77;;
57395;SDS011;43222;52.912;6.940;2022-11-20T08:16:39;19.45;;;12.32;;
57395;SDS011;43222;52.912;6.940;2022-11-20T08:19:05;18.92;;;13.45;;
57395;SDS011;43222;52.912;6.940;2022-11-20T08:21:31;16.85;;;13.38;;
57395;SDS011;43222;52.912;6.940;2022-11-20T08:23:57;19.42;;;12.75;;
57395;SDS011;43222;52.912;6.940;2022-11-20T08:26:24;18.98;;;13.05;;
57395;SDS011;43222;52.912;6.940;2022-11-20T08:28:53;20.92;;;13.20;;
57395;SDS011;43222;52.912;6.940;2022-11-20T08:31:19;20.48;;;13.20;;
57395;SDS011;43222;52.912;6.940;2022-11-20T08:33:45;18.25;;;12.55;;
57395;SDS011;43222;52.912;6.940;2022-11-20T08:36:11;18.65;;;12.98;;
57395;SDS011;43222;52.912;6.940;2022-11-20T08:38:37;18.02;;;12.77;;
57395;SDS011;43222;52.912;6.940;2022-11-20T08:41:04;20.55;;;12.65;;
57395;SDS011;43222;52.912;6.940;2022-11-20T08:44:01;17.58;;;11.88;;
57395;SDS011;43222;52.912;6.940;2022-11-20T08:46:30;19.10;;;12.38;;
57395;SDS011;43222;52.912;6.940;2022-11-20T08:48:58;17.33;;;12.52;;
57395;SDS011;43222;52.912;6.940;2022-11-20T08:51:24;19.40;;;12.43;;
57395;SDS011;43222;52.912;6.940;2022-11-20T08:53:50;17.65;;;12.27;;
57395;SDS011;43222;52.912;6.940;2022-11-20T08:56:16;18.52;;;13.38;;
57395;SDS011;43222;52.912;6.940;2022-11-20T08:58:42;22.65;;;19.55;;
57395;SDS011;43222;52.912;6.940;2022-11-20T09:01:09;19.30;;;13.20;;
57395;SDS011;43222;52.912;6.940;2022-11-20T09:03:35;17.27;;;12.52;;
57395;SDS011;43222;52.912;6.940;2022-11-20T09:06:02;19.63;;;11.52;;
57395;SDS011;43222;52.912;6.940;2022-11-20T09:08:28;17.52;;;12.10;;
57395;SDS011;43222;52.912;6.940;2022-11-20T09:10:55;16.45;;;11.80;;
57395;SDS011;43222;52.912;6.940;2022-11-20T09:13:22;16.77;;;12.63;;
57395;SDS011;43222;52.912;6.940;2022-11-20T09:15:55;17.38;;;12.40;;
57395;SDS011;43222;52.912;6.940;2022-11-20T09:18:22;17.75;;;11.45;;
57395;SDS011;43222;52.912;6.940;2022-11-20T09:20:48;21.88;;;14.15;;
57395;SDS011;43222;52.912;6.940;2022-11-20T09:23:15;22.55;;;14.30;;
57395;SDS011;43222;52.912;6.940;2022-11-20T09:25:41;20.80;;;13.43;;
57395;SDS011;43222;52.912;6.940;2022-11-20T09:28:08;18.10;;;13.00;;
57395;SDS011;43222;52.912;6.940;2022-11-20T09:30:34;17.92;;;11.60;;
57395;SDS011;43222;52.912;6.940;2022-11-20T09:33:00;17.38;;;11.68;;
57395;SDS011;43222;52.912;6.940;2022-11-20T09:35:26;17.38;;;13.10;;
57395;SDS011;43222;52.912;6.940;2022-11-20T09:37:52;17.02;;;12.23;;
57395;SDS011;43222;52.912;6.940;2022-11-20T09:40:20;19.15;;;13.30;;
57395;SDS011;43222;52.912;6.940;2022-11-20T09:42:47;16.73;;;12.10;;
57395;SDS011;43222;52.912;6.940;2022-11-20T09:45:36;15.80;;;11.45;;
57395;SDS011;43222;52.912;6.940;2022-11-20T09:50:33;15.90;;;11.27;;
57395;SDS011;43222;52.912;6.940;2022-11-20T09:53:11;16.40;;;12.10;;
57395;SDS011;43222;52.912;6.940;2022-11-20T09:55:38;14.32;;;10.82;;
57395;SDS011;43222;52.912;6.940;2022-11-20T09:58:10;16.35;;;11.45;;
57395;SDS011;43222;52.912;6.940;2022-11-20T10:00:38;15.95;;;11.18;;
57395;SDS011;43222;52.912;6.940;2022-11-20T10:03:18;16.67;;;11.90;;
57395;SDS011;43222;52.912;6.940;2022-11-20T10:05:55;15.98;;;11.55;;
57395;SDS011;43222;52.912;6.940;2022-11-20T10:08:33;17.27;;;11.30;;
57395;SDS011;43222;52.912;6.940;2022-11-20T10:11:04;15.70;;;11.10;;
57395;SDS011;43222;52.912;6.940;2022-11-20T10:16:16;20.35;;;12.70;;
57395;SDS011;43222;52.912;6.940;2022-11-20T10:19:47;17.08;;;11.38;;
57395;SDS011;43222;52.912;6.940;2022-11-20T10:21:52;16.40;;;11.55;;
57395;SDS011;43222;52.912;6.940;2022-11-20T10:29:34;14.40;;;10.80;;
57395;SDS011;43222;52.912;6.940;2022-11-20T10:32:02;17.35;;;11.10;;
57395;SDS011;43222;52.912;6.940;2022-11-20T10:34:30;18.48;;;11.93;;
57395;SDS011;43222;52.912;6.940;2022-11-20T10:37:30;16.95;;;11.68;;
57395;SDS011;43222;52.912;6.940;2022-11-20T10:42:26;13.82;;;11.10;;
57395;SDS011;43222;52.912;6.940;2022-11-20T10:44:58;14.98;;;11.23;;
57395;SDS011;43222;52.912;6.940;2022-11-20T10:47:29;15.23;;;11.07;;
57395;SDS011;43222;52.912;6.940;2022-11-20T10:49:57;15.15;;;10.68;;
57395;SDS011;43222;52.912;6.940;2022-11-20T10:55:27;14.65;;;10.48;;
57395;SDS011;43222;52.912;6.940;2022-11-20T10:58:13;15.43;;;11.38;;
57395;SDS011;43222;52.912;6.940;2022-11-20T11:00:39;14.88;;;10.60;;
57395;SDS011;43222;52.912;6.940;2022-11-20T11:03:22;15.82;;;10.93;;
57395;SDS011;43222;52.912;6.940;2022-11-20T11:05:50;15.60;;;10.88;;
57395;SDS011;43222;52.912;6.940;2022-11-20T11:08:18;15.38;;;11.45;;
57395;SDS011;43222;52.912;6.940;2022-11-20T11:13:29;14.18;;;10.13;;
57395;SDS011;43222;52.912;6.940;2022-11-20T11:15:56;13.40;;;10.50;;
57395;SDS011;43222;52.912;6.940;2022-11-20T11:18:31;13.80;;;10.38;;
57395;SDS011;43222;52.912;6.940;2022-11-20T11:21:00;14.93;;;10.13;;
57395;SDS011;43222;52.912;6.940;2022-11-20T11:23:37;13.85;;;10.00;;
57395;SDS011;43222;52.912;6.940;2022-11-20T11:26:05;15.95;;;10.45;;
57395;SDS011;43222;52.912;6.940;2022-11-20T11:28:31;15.93;;;10.10;;
57395;SDS011;43222;52.912;6.940;2022-11-20T11:30:57;14.75;;;10.23;;
57395;SDS011;43222;52.912;6.940;2022-11-20T11:33:24;15.13;;;10.50;;
57395;SDS011;43222;52.912;6.940;2022-11-20T11:35:51;13.52;;;10.40;;
57395;SDS011;43222;52.912;6.940;2022-11-20T11:38:22;35.13;;;19.15;;
57395;SDS011;43222;52.912;6.940;2022-11-20T11:40:53;39.60;;;23.23;;
57395;SDS011;43222;52.912;6.940;2022-11-20T11:43:20;20.83;;;13.88;;
57395;SDS011;43222;52.912;6.940;2022-11-20T11:54:49;16.65;;;12.55;;
57395;SDS011;43222;52.912;6.940;2022-11-20T11:57:10;13.95;;;10.07;;
57395;SDS011;43222;52.912;6.940;2022-11-20T11:59:47;16.15;;;11.15;;
57395;SDS011;43222;52.912;6.940;2022-11-20T12:04:59;14.40;;;11.20;;
57395;SDS011;43222;52.912;6.940;2022-11-20T12:07:32;12.15;;;8.63;;
57395;SDS011;43222;52.912;6.940;2022-11-20T12:10:02;10.90;;;7.90;;
57395;SDS011;43222;52.912;6.940;2022-11-20T12:12:36;11.40;;;7.60;;
57395;SDS011;43222;52.912;6.940;2022-11-20T12:15:06;11.38;;;8.00;;
57395;SDS011;43222;52.912;6.940;2022-11-20T12:17:35;12.20;;;8.80;;
57395;SDS011;43222;52.912;6.940;2022-11-20T12:20:01;12.88;;;8.63;;
57395;SDS011;43222;52.912;6.940;2022-11-20T12:24:55;12.00;;;8.40;;
57395;SDS011;43222;52.912;6.940;2022-11-20T12:30:10;15.88;;;11.43;;
57395;SDS011;43222;52.912;6.940;2022-11-20T12:42:54;17.88;;;11.85;;
57395;SDS011;43222;52.912;6.940;2022-11-20T12:58:29;33.45;;;18.83;;
57395;SDS011;43222;52.912;6.940;2022-11-20T13:01:24;14.55;;;10.18;;
57395;SDS011;43222;52.912;6.940;2022-11-20T13:06:39;11.98;;;8.55;;
57395;SDS011;43222;52.912;6.940;2022-11-20T13:09:08;12.70;;;8.15;;
57395;SDS011;43222;52.912;6.940;2022-11-20T13:14:24;12.63;;;7.75;;
57395;SDS011;43222;52.912;6.940;2022-11-20T13:19:21;11.85;;;8.88;;
57395;SDS011;43222;52.912;6.940;2022-11-20T13:21:48;13.73;;;8.82;;
57395;SDS011;43222;52.912;6.940;2022-11-20T13:26:44;13.10;;;8.68;;
57395;SDS011;43222;52.912;6.940;2022-11-20T13:29:11;12.93;;;9.30;;
57395;SDS011;43222;52.912;6.940;2022-11-20T13:31:39;13.77;;;10.02;;
57395;SDS011;43222;52.912;6.940;2022-11-20T13:34:10;14.75;;;10.20;;
57395;SDS011;43222;52.912;6.940;2022-11-20T13:36:37;15.65;;;10.57;;
57395;SDS011;43222;52.912;6.940;2022-11-20T13:39:23;15.23;;;11.43;;
57395;SDS011;43222;52.912;6.940;2022-11-20T13:41:53;14.90;;;11.18;;
57395;SDS011;43222;52.912;6.940;2022-11-20T13:44:33;16.15;;;10.88;;
57395;SDS011;43222;52.912;6.940;2022-11-20T13:47:02;15.80;;;10.85;;
57395;SDS011;43222;52.912;6.940;2022-11-20T13:49:37;16.17;;;11.27;;
57395;SDS011;43222;52.912;6.940;2022-11-20T13:57:36;17.10;;;11.02;;
57395;SDS011;43222;52.912;6.940;2022-11-20T14:02:30;14.38;;;10.60;;
57395;SDS011;43222;52.912;6.940;2022-11-20T14:04:57;16.23;;;10.65;;
57395;SDS011;43222;52.912;6.940;2022-11-20T14:07:25;16.83;;;10.60;;
57395;SDS011;43222;52.912;6.940;2022-11-20T14:09:56;17.20;;;12.18;;
57395;SDS011;43222;52.912;6.940;2022-11-20T14:12:26;15.55;;;10.65;;
57395;SDS011;43222;52.912;6.940;2022-11-20T14:14:53;15.00;;;11.05;;
57395;SDS011;43222;52.912;6.940;2022-11-20T14:17:23;15.77;;;11.57;;
57395;SDS011;43222;52.912;6.940;2022-11-20T14:19:51;15.80;;;11.23;;
57395;SDS011;43222;52.912;6.940;2022-11-20T14:24:43;15.25;;;11.43;;
57395;SDS011;43222;52.912;6.940;2022-11-20T14:27:16;15.48;;;11.77;;
57395;SDS011;43222;52.912;6.940;2022-11-20T14:29:43;16.60;;;11.82;;
57395;SDS011;43222;52.912;6.940;2022-11-20T14:32:10;16.35;;;12.32;;
57395;SDS011;43222;52.912;6.940;2022-11-20T14:34:40;15.70;;;11.57;;
57395;SDS011;43222;52.912;6.940;2022-11-20T14:37:11;17.13;;;12.65;;
57395;SDS011;43222;52.912;6.940;2022-11-20T14:39:40;15.90;;;12.20;;
57395;SDS011;43222;52.912;6.940;2022-11-20T14:42:17;16.58;;;12.38;;
57395;SDS011;43222;52.912;6.940;2022-11-20T14:44:43;16.98;;;12.68;;
57395;SDS011;43222;52.912;6.940;2022-11-20T14:47:10;16.90;;;12.27;;
57395;SDS011;43222;52.912;6.940;2022-11-20T14:49:37;16.17;;;12.43;;
57395;SDS011;43222;52.912;6.940;2022-11-20T14:52:37;18.27;;;12.35;;
57395;SDS011;43222;52.912;6.940;2022-11-20T14:54:57;18.23;;;12.52;;
57395;SDS011;43222;52.912;6.940;2022-11-20T14:57:33;17.63;;;12.55;;
57395;SDS011;43222;52.912;6.940;2022-11-20T15:00:04;18.17;;;12.48;;
57395;SDS011;43222;52.912;6.940;2022-11-20T15:02:30;16.30;;;12.27;;
57395;SDS011;43222;52.912;6.940;2022-11-20T15:04:57;18.13;;;13.05;;
57395;SDS011;43222;52.912;6.940;2022-11-20T15:07:28;16.27;;;12.52;;
57395;SDS011;43222;52.912;6.940;2022-11-20T15:10:08;16.58;;;12.43;;
57395;SDS011;43222;52.912;6.940;2022-11-20T15:12:37;15.93;;;12.35;;
57395;SDS011;43222;52.912;6.940;2022-11-20T15:15:04;15.95;;;12.05;;
57395;SDS011;43222;52.912;6.940;2022-11-20T15:17:30;17.38;;;12.23;;
57395;SDS011;43222;52.912;6.940;2022-11-20T15:20:08;15.85;;;12.07;;
57395;SDS011;43222;52.912;6.940;2022-11-20T15:22:35;20.45;;;14.57;;
57395;SDS011;43222;52.912;6.940;2022-11-20T15:25:04;41.97;;;23.52;;
57395;SDS011;43222;52.912;6.940;2022-11-20T15:27:30;45.95;;;25.55;;
57395;SDS011;43222;52.912;6.940;2022-11-20T15:29:56;26.08;;;18.35;;
57395;SDS011;43222;52.912;6.940;2022-11-20T15:32:22;22.17;;;15.52;;
57395;SDS011;43222;52.912;6.940;2022-11-20T15:34:48;20.58;;;15.32;;
57395;SDS011;43222;52.912;6.940;2022-11-20T15:37:14;19.73;;;14.50;;
57395;SDS011;43222;52.912;6.940;2022-11-20T15:39:40;31.38;;;19.48;;
57395;SDS011;43222;52.912;6.940;2022-11-20T15:42:07;43.30;;;27.15;;
57395;SDS011;43222;52.912;6.940;2022-11-20T15:44:33;28.92;;;19.42;;
57395;SDS011;43222;52.912;6.940;2022-11-20T15:46:59;27.40;;;17.20;;
57395;SDS011;43222;52.912;6.940;2022-11-20T15:49:25;27.75;;;18.08;;
57395;SDS011;43222;52.912;6.940;2022-11-20T15:51:51;19.23;;;14.90;;